Palouse, WA (99161)

5:37 AM PDT on October 30, 2014 (GMT -0700)
Palouse Cove | Change Station
CLOSE
Current Station
Personal Weather Station
Location: Palouse, WA
Elevation: 2462 ft
Nearby Weather Stations

Elev 2462 ft 46.91 °N, 117.08 °W | Updated 39 seconds ago

Overcast
Overcast
49.6 °F
Feels Like 50 °F
N
0.0
Wind Variable Wind from East
Gusts 1.0 mph

Today
High -- | Low -- °F
--% Chance of Precip.
Yesterday
High -- | Low -- °F
Precip. -- in
7:27 AM 5:35 PM
Waxing Crescent, 43% visible
Pressure 30.14 in
Visibility 9.0 miles
Clouds Overcast 9500 ft
Windchill 50 °F
Dew Point 44 °F
Humidity 80%
Rainfall 0.00 in
Snow Depth Not available.
UV 0 out of 12
Pollen 2.20 out of 12
Air Quality Not available.
Flu Activity Not available.
METAR KPUW 301153Z AUTO 09010KT 9SM OVC095 09/06 A3013 RMK AO2 SLP206 T00940056 10100 20078 56011

More Conditions Fewer Conditions

Pressure 30.14 in
Visibility 9.0 miles
Clouds Overcast 9500 ft
Windchill 50 °F
Dew Point 44 °F
Humidity 80%
Rainfall 0.00 in
Snow Depth Not available.
UV 0 out of 12
Pollen 2.20 out of 12
Air Quality Not available.
Flu Activity Not available.
METAR KPUW 301153Z AUTO 09010KT 9SM OVC095 09/06 A3013 RMK AO2 SLP206 T00940056 10100 20078 56011

More Conditions Fewer Conditions

10-Day Weather Forecast

Almanac

Astronomy

Oct. 30, 2014 Rise Set
Actual Time
Civil Twilight
Nautical Twilight
Astronomical Twilight
Moon
Length of Visible Light
Length of Day
Tomorrow will be .
, % of the Moon is Illuminated

Today's Extremes

State Highs State Lows

Community

WunderPhotos

Upload Photos

1,766,351 photos uploaded!

WunderBlogs® & News

Nearby

Air Quality

  Air Quality AQ Index Pollutant
Not available.

Snow Depth

Station Depth Elevation

Earthquake Activity

City Distance Mag. Time & Date
Minimum magnitude displayed is 2.5.

Coastal Water Temperatures

Place Temperature

Nearby Weather Stations